Terminal Aerodrome Forecast
Issued by NWS Wilmington, OH

Home | Current Version | Previous Version | Text Only | Print | Product List | Glossary On
Versions: 1 2 3 4 5 6 7 8 9 10 11 12 13 14 15 16 17 18 19 20 21 22
000
FTUS41 KILN 241200 AAA
TAFDAY
TAF AMD
KDAY 241225Z 2412/2512 19018G28KT P6SM VCSH BKN015 OVC025
     FM241300 20018G32KT P6SM VCTS OVC025CB
      TEMPO 2414/2415 21024G38KT 5SM -TSRA BR OVC015CB
     FM241600 23020G30KT P6SM OVC025
     FM250300 23013G20KT P6SM SCT025
      TEMPO 2509/2512 BKN025=

USA.gov is the U.S. government's official web portal to all federal, state and local government web resources and services.